sensor_id;sensor_type;location;lat;lon;timestamp;pressure;altitude;pressure_sealevel;temperature;humidity
13836;BME280;6988;52.614;13.500;2023-05-27T00:01:54;54165.63;;;-143.77;63.88
13836;BME280;6988;52.614;13.500;2023-05-27T00:06:46;54165.63;;;-143.77;64.01
13836;BME280;6988;52.614;13.500;2023-05-27T00:11:39;54159.47;;;-143.77;64.51
13836;BME280;6988;52.614;13.500;2023-05-27T00:16:30;54196.41;;;-143.77;64.83
13836;BME280;6988;52.614;13.500;2023-05-27T00:21:27;54196.41;;;-143.77;64.63
13836;BME280;6988;52.614;13.500;2023-05-27T00:26:19;54229.22;;;-143.77;65.07
13836;BME280;6988;52.614;13.500;2023-05-27T00:31:15;54200.50;;;-143.77;65.34
13836;BME280;6988;52.614;13.500;2023-05-27T00:36:07;54204.59;;;-143.77;65.48
13836;BME280;6988;52.614;13.500;2023-05-27T00:41:03;54221.03;;;-143.77;65.76
13836;BME280;6988;52.614;13.500;2023-05-27T00:45:55;54227.16;;;-143.77;65.89
13836;BME280;6988;52.614;13.500;2023-05-27T00:50:48;54214.88;;;-143.77;66.23
13836;BME280;6988;52.614;13.500;2023-05-27T00:55:40;54204.59;;;-143.77;66.23
13836;BME280;6988;52.614;13.500;2023-05-27T01:00:33;54190.25;;;-143.77;66.25
13836;BME280;6988;52.614;13.500;2023-05-27T01:05:25;54241.53;;;-143.77;66.65
13836;BME280;6988;52.614;13.500;2023-05-27T01:10:27;54194.34;;;-143.77;66.75
13836;BME280;6988;52.614;13.500;2023-05-27T01:15:23;54206.66;;;-143.77;66.75
13836;BME280;6988;52.614;13.500;2023-05-27T01:20:18;54223.06;;;-143.77;66.93
13836;BME280;6988;52.614;13.500;2023-05-27T01:25:12;54233.31;;;-143.77;67.10
13836;BME280;6988;52.614;13.500;2023-05-27T01:30:07;54241.53;;;-143.77;67.16
13836;BME280;6988;52.614;13.500;2023-05-27T01:35:05;54245.63;;;-143.77;67.20
13836;BME280;6988;52.614;13.500;2023-05-27T01:39:58;54241.53;;;-143.77;67.23
13836;BME280;6988;52.614;13.500;2023-05-27T01:44:55;54237.44;;;-143.77;67.03
13836;BME280;6988;52.614;13.500;2023-05-27T01:49:47;54251.78;;;-143.77;67.18
13836;BME280;6988;52.614;13.500;2023-05-27T01:54:39;54233.31;;;-143.77;67.55
13836;BME280;6988;52.614;13.500;2023-05-27T01:59:32;54264.09;;;-143.77;68.07
13836;BME280;6988;52.614;13.500;2023-05-27T02:04:26;54272.31;;;-143.77;67.72
13836;BME280;6988;52.614;13.500;2023-05-27T02:09:19;54225.13;;;-143.77;67.96
13836;BME280;6988;52.614;13.500;2023-05-27T02:14:11;54247.69;;;-143.77;68.24
13836;BME280;6988;52.614;13.500;2023-05-27T02:19:06;54262.06;;;-143.77;68.88
13836;BME280;6988;52.614;13.500;2023-05-27T02:24:00;54262.06;;;-143.77;68.96
13836;BME280;6988;52.614;13.500;2023-05-27T02:28:52;54257.94;;;-143.77;68.68
13836;BME280;6988;52.614;13.500;2023-05-27T02:33:44;54294.88;;;-143.77;69.00
13836;BME280;6988;52.614;13.500;2023-05-27T02:38:37;54280.53;;;-143.77;69.42
13836;BME280;6988;52.614;13.500;2023-05-27T02:43:30;54301.03;;;-143.77;69.35
13836;BME280;6988;52.614;13.500;2023-05-27T02:48:22;54282.56;;;-143.77;69.65
13836;BME280;6988;52.614;13.500;2023-05-27T02:53:14;54264.09;;;-143.77;69.64
13836;BME280;6988;52.614;13.500;2023-05-27T02:58:07;54257.94;;;-143.77;69.70
13836;BME280;6988;52.614;13.500;2023-05-27T03:03:01;54286.69;;;-143.77;69.93
13836;BME280;6988;52.614;13.500;2023-05-27T03:07:54;54278.47;;;-143.77;70.24
13836;BME280;6988;52.614;13.500;2023-05-27T03:12:48;54270.25;;;-143.77;70.54
13836;BME280;6988;52.614;13.500;2023-05-27T03:17:40;54288.72;;;-143.77;70.38
13836;BME280;6988;52.614;13.500;2023-05-27T03:22:35;54282.56;;;-143.77;70.18
13836;BME280;6988;52.614;13.500;2023-05-27T03:27:28;54301.03;;;-143.77;70.74
13836;BME280;6988;52.614;13.500;2023-05-27T03:32:21;54249.75;;;-143.77;70.42
13836;BME280;6988;52.614;13.500;2023-05-27T03:37:15;54268.22;;;-143.77;70.74
13836;BME280;6988;52.614;13.500;2023-05-27T03:42:21;54282.56;;;-143.77;70.09
13836;BME280;6988;52.614;13.500;2023-05-27T03:47:13;54249.75;;;-143.77;70.00
13836;BME280;6988;52.614;13.500;2023-05-27T03:52:08;54286.69;;;-143.77;70.10
13836;BME280;6988;52.614;13.500;2023-05-27T03:57:00;54303.09;;;-143.77;70.29
13836;BME280;6988;52.614;13.500;2023-05-27T04:01:53;54282.56;;;-143.77;70.18
13836;BME280;6988;52.614;13.500;2023-05-27T04:06:45;54294.88;;;-143.77;70.87
13836;BME280;6988;52.614;13.500;2023-05-27T04:11:36;54298.97;;;-143.77;71.31
13836;BME280;6988;52.614;13.500;2023-05-27T04:16:28;54280.53;;;-143.77;71.37
13836;BME280;6988;52.614;13.500;2023-05-27T04:21:23;54294.88;;;-143.77;71.59
13836;BME280;6988;52.614;13.500;2023-05-27T04:26:15;54278.47;;;-143.77;71.82
13836;BME280;6988;52.614;13.500;2023-05-27T04:31:13;54245.63;;;-143.77;72.45
13836;BME280;6988;52.614;13.500;2023-05-27T04:36:20;54253.84;;;-143.77;73.08
13836;BME280;6988;52.614;13.500;2023-05-27T04:41:24;54249.75;;;-143.77;73.62
13836;BME280;6988;52.614;13.500;2023-05-27T04:46:30;54239.47;;;-143.77;74.11
13836;BME280;6988;52.614;13.500;2023-05-27T04:51:22;54204.59;;;-143.77;74.58
13836;BME280;6988;52.614;13.500;2023-05-27T04:56:15;54221.03;;;-143.77;74.89
13836;BME280;6988;52.614;13.500;2023-05-27T05:01:10;54216.91;;;-143.77;74.80
13836;BME280;6988;52.614;13.500;2023-05-27T05:06:11;54186.13;;;-143.77;74.58
13836;BME280;6988;52.614;13.500;2023-05-27T05:11:03;54184.09;;;-143.77;73.95
13836;BME280;6988;52.614;13.500;2023-05-27T05:15:55;54200.50;;;-143.77;73.40
13836;BME280;6988;52.614;13.500;2023-05-27T05:20:48;54188.19;;;-143.77;73.12
13836;BME280;6988;52.614;13.500;2023-05-27T05:25:46;54204.59;;;-143.77;72.57
13836;BME280;6988;52.614;13.500;2023-05-27T05:30:45;54147.16;;;-143.77;72.14
13836;BME280;6988;52.614;13.500;2023-05-27T05:35:40;54147.16;;;-143.77;72.03
13836;BME280;6988;52.614;13.500;2023-05-27T05:40:45;54163.56;;;-143.77;71.13
13836;BME280;6988;52.614;13.500;2023-05-27T05:45:41;54147.16;;;-143.77;70.28
13836;BME280;6988;52.614;13.500;2023-05-27T05:50:33;54120.47;;;-143.77;69.42
13836;BME280;6988;52.614;13.500;2023-05-27T05:55:25;54143.06;;;-143.77;66.61
13836;BME280;6988;52.614;13.500;2023-05-27T06:00:19;54106.13;;;-143.77;64.43
13836;BME280;6988;52.614;13.500;2023-05-27T06:05:11;54104.06;;;-143.77;63.85
13836;BME280;6988;52.614;13.500;2023-05-27T06:10:04;54089.72;;;-143.77;62.26
13836;BME280;6988;52.614;13.500;2023-05-27T06:15:04;54050.72;;;-143.77;59.07
13836;BME280;6988;52.614;13.500;2023-05-27T06:20:07;54030.22;;;-143.77;56.99
13836;BME280;6988;52.614;13.500;2023-05-27T06:24:59;53985.06;;;-143.77;55.16
13836;BME280;6988;52.614;13.500;2023-05-27T06:30:04;53886.59;;;-143.77;52.33
13836;BME280;6988;52.614;13.500;2023-05-27T06:35:00;53847.59;;;-143.77;51.67
13836;BME280;6988;52.614;13.500;2023-05-27T06:39:54;53823.00;;;-143.77;48.63
13836;BME280;6988;52.614;13.500;2023-05-27T06:44:46;53837.34;;;-143.77;47.18
13836;BME280;6988;52.614;13.500;2023-05-27T06:49:43;53777.84;;;-143.77;44.25
13836;BME280;6988;52.614;13.500;2023-05-27T06:54:36;53736.81;;;-143.77;43.34
13836;BME280;6988;52.614;13.500;2023-05-27T06:59:49;53745.03;;;-143.77;43.52
13836;BME280;6988;52.614;13.500;2023-05-27T07:04:41;53736.81;;;-143.77;43.04
13836;BME280;6988;52.614;13.500;2023-05-27T07:09:34;53701.94;;;-143.77;43.20
13836;BME280;6988;52.614;13.500;2023-05-27T07:14:26;53658.88;;;-143.77;41.98
13836;BME280;6988;52.614;13.500;2023-05-27T07:19:19;53677.34;;;-143.77;41.11
13836;BME280;6988;52.614;13.500;2023-05-27T07:24:18;53683.50;;;-143.77;39.81
13836;BME280;6988;52.614;13.500;2023-05-27T07:29:15;53611.69;;;-143.77;38.49
13836;BME280;6988;52.614;13.500;2023-05-27T07:34:18;53615.78;;;-143.77;39.47
13836;BME280;6988;52.614;13.500;2023-05-27T07:39:11;53587.06;;;-143.77;37.72
13836;BME280;6988;52.614;13.500;2023-05-27T07:44:04;53535.78;;;-143.77;36.75
13836;BME280;6988;52.614;13.500;2023-05-27T07:48:56;53517.31;;;-143.77;36.87
13836;BME280;6988;52.614;13.500;2023-05-27T07:53:50;53492.69;;;-143.77;37.80
13836;BME280;6988;52.614;13.500;2023-05-27T07:58:44;53478.34;;;-143.77;36.56
13836;BME280;6988;52.614;13.500;2023-05-27T08:03:37;53457.81;;;-143.77;35.33
13836;BME280;6988;52.614;13.500;2023-05-27T08:08:39;53425.00;;;-143.77;34.70
13836;BME280;6988;52.614;13.500;2023-05-27T08:13:51;53420.91;;;-143.77;33.37
13836;BME280;6988;52.614;13.500;2023-05-27T08:19:05;53416.78;;;-143.77;34.80
13836;BME280;6988;52.614;13.500;2023-05-27T08:24:11;53367.56;;;-143.77;33.70
13836;BME280;6988;52.614;13.500;2023-05-27T08:29:23;53328.59;;;-143.77;34.81
13836;BME280;6988;52.614;13.500;2023-05-27T08:34:33;53359.34;;;-143.77;34.10
13836;BME280;6988;52.614;13.500;2023-05-27T08:39:25;53365.50;;;-143.77;33.46
13836;BME280;6988;52.614;13.500;2023-05-27T08:44:29;53310.13;;;-143.77;34.21
13836;BME280;6988;52.614;13.500;2023-05-27T08:49:26;53289.63;;;-143.77;32.89
13836;BME280;6988;52.614;13.500;2023-05-27T08:54:19;53265.00;;;-143.77;32.00
13836;BME280;6988;52.614;13.500;2023-05-27T08:59:12;53232.19;;;-143.77;32.69
13836;BME280;6988;52.614;13.500;2023-05-27T09:04:05;53244.50;;;-143.77;31.57
13836;BME280;6988;52.614;13.500;2023-05-27T09:08:57;53228.06;;;-143.77;31.40
13836;BME280;6988;52.614;13.500;2023-05-27T09:13:50;53201.41;;;-143.77;30.95
13836;BME280;6988;52.614;13.500;2023-05-27T09:18:45;53219.88;;;-143.77;31.48
13836;BME280;6988;52.614;13.500;2023-05-27T09:23:39;53195.25;;;-143.77;30.91
13836;BME280;6988;52.614;13.500;2023-05-27T09:28:30;53238.34;;;-143.77;31.49
13836;BME280;6988;52.614;13.500;2023-05-27T09:33:23;53230.13;;;-143.77;32.63
13836;BME280;6988;52.614;13.500;2023-05-27T09:38:15;53180.91;;;-143.77;31.44
13836;BME280;6988;52.614;13.500;2023-05-27T09:43:13;53172.69;;;-143.77;30.81
13836;BME280;6988;52.614;13.500;2023-05-27T09:48:07;53152.19;;;-143.77;30.69
13836;BME280;6988;52.614;13.500;2023-05-27T09:53:02;53215.78;;;-143.77;30.65
13836;BME280;6988;52.614;13.500;2023-05-27T09:57:55;53199.34;;;-143.77;31.82
13836;BME280;6988;52.614;13.500;2023-05-27T10:02:49;53125.50;;;-143.77;31.43
13836;BME280;6988;52.614;13.500;2023-05-27T10:07:44;53164.50;;;-143.77;29.24
13836;BME280;6988;52.614;13.500;2023-05-27T10:12:38;53135.78;;;-143.77;30.63
13836;BME280;6988;52.614;13.500;2023-05-27T10:17:41;53088.59;;;-143.77;30.18
13836;BME280;6988;52.614;13.500;2023-05-27T10:22:43;53105.00;;;-143.77;30.17
13836;BME280;6988;52.614;13.500;2023-05-27T10:27:43;53070.13;;;-143.77;30.63
13836;BME280;6988;52.614;13.500;2023-05-27T10:32:43;53076.28;;;-143.77;29.54
13836;BME280;6988;52.614;13.500;2023-05-27T10:37:36;53094.75;;;-143.77;30.69
13836;BME280;6988;52.614;13.500;2023-05-27T10:42:29;53063.97;;;-143.77;30.45
13836;BME280;6988;52.614;13.500;2023-05-27T10:47:28;52986.03;;;-143.77;29.41
13836;BME280;6988;52.614;13.500;2023-05-27T10:52:24;53006.53;;;-143.77;28.91
13836;BME280;6988;52.614;13.500;2023-05-27T10:57:18;52961.41;;;-143.77;28.22
13836;BME280;6988;52.614;13.500;2023-05-27T11:02:12;52955.25;;;-143.77;28.89
13836;BME280;6988;52.614;13.500;2023-05-27T11:07:04;52906.03;;;-143.77;28.04
13836;BME280;6988;52.614;13.500;2023-05-27T11:12:00;52883.47;;;-143.77;27.86
13836;BME280;6988;52.614;13.500;2023-05-27T11:16:53;52862.97;;;-143.77;28.23
13836;BME280;6988;52.614;13.500;2023-05-27T11:21:47;52871.16;;;-143.77;27.82
13836;BME280;6988;52.614;13.500;2023-05-27T11:26:42;52910.13;;;-143.77;27.52
13836;BME280;6988;52.614;13.500;2023-05-27T11:31:34;52998.34;;;-143.77;28.50
13836;BME280;6988;52.614;13.500;2023-05-27T11:36:30;53006.53;;;-143.77;29.31
13836;BME280;6988;52.614;13.500;2023-05-27T11:41:28;53004.50;;;-143.77;28.59
13836;BME280;6988;52.614;13.500;2023-05-27T11:46:21;53022.94;;;-143.77;28.70
13836;BME280;6988;52.614;13.500;2023-05-27T11:51:13;53037.31;;;-143.77;28.30
13836;BME280;6988;52.614;13.500;2023-05-27T11:56:05;53002.44;;;-143.77;29.41
13836;BME280;6988;52.614;13.500;2023-05-27T12:00:58;53018.84;;;-143.77;27.31
13836;BME280;6988;52.614;13.500;2023-05-27T12:05:50;52934.75;;;-143.77;27.94
13836;BME280;6988;52.614;13.500;2023-05-27T12:10:41;52947.06;;;-143.77;27.17
13836;BME280;6988;52.614;13.500;2023-05-27T12:15:35;52934.75;;;-143.77;28.95
13836;BME280;6988;52.614;13.500;2023-05-27T12:20:28;52910.13;;;-143.77;28.82
13836;BME280;6988;52.614;13.500;2023-05-27T12:25:20;52910.13;;;-143.77;27.78
13836;BME280;6988;52.614;13.500;2023-05-27T12:30:12;52961.41;;;-143.77;27.63
13836;BME280;6988;52.614;13.500;2023-05-27T12:35:05;52949.13;;;-143.77;26.92
13836;BME280;6988;52.614;13.500;2023-05-27T12:39:58;53045.50;;;-143.77;28.53
13836;BME280;6988;52.614;13.500;2023-05-27T12:44:50;53072.19;;;-143.77;29.41
13836;BME280;6988;52.614;13.500;2023-05-27T12:49:42;53008.59;;;-143.77;29.77
13836;BME280;6988;52.614;13.500;2023-05-27T12:54:34;52963.47;;;-143.77;29.21
13836;BME280;6988;52.614;13.500;2023-05-27T12:59:28;52891.69;;;-143.77;28.85
13836;BME280;6988;52.614;13.500;2023-05-27T13:04:20;52895.78;;;-143.77;28.28
13836;BME280;6988;52.614;13.500;2023-05-27T13:09:12;52932.69;;;-143.77;28.46
13836;BME280;6988;52.614;13.500;2023-05-27T13:14:04;52932.69;;;-143.77;27.42
13836;BME280;6988;52.614;13.500;2023-05-27T13:18:57;52967.56;;;-143.77;28.12
13836;BME280;6988;52.614;13.500;2023-05-27T13:23:51;52990.13;;;-143.77;28.36
13836;BME280;6988;52.614;13.500;2023-05-27T13:28:44;53018.84;;;-143.77;28.05
13836;BME280;6988;52.614;13.500;2023-05-27T13:33:36;52986.03;;;-143.77;27.89
13836;BME280;6988;52.614;13.500;2023-05-27T13:38:30;53006.53;;;-143.77;28.89
13836;BME280;6988;52.614;13.500;2023-05-27T13:43:22;53088.59;;;-143.77;28.96
13836;BME280;6988;52.614;13.500;2023-05-27T13:48:14;53094.75;;;-143.77;28.97
13836;BME280;6988;52.614;13.500;2023-05-27T13:53:06;53146.03;;;-143.77;29.80
13836;BME280;6988;52.614;13.500;2023-05-27T13:57:59;53141.91;;;-143.77;30.16
13836;BME280;6988;52.614;13.500;2023-05-27T14:02:53;53150.13;;;-143.77;30.69
13836;BME280;6988;52.614;13.500;2023-05-27T14:07:45;53148.06;;;-143.77;30.12
13836;BME280;6988;52.614;13.500;2023-05-27T14:12:37;53156.28;;;-143.77;30.23
13836;BME280;6988;52.614;13.500;2023-05-27T14:17:31;53203.47;;;-143.77;30.92
13836;BME280;6988;52.614;13.500;2023-05-27T14:22:23;53240.38;;;-143.77;31.66
13836;BME280;6988;52.614;13.500;2023-05-27T14:27:15;53265.00;;;-143.77;31.41
13836;BME280;6988;52.614;13.500;2023-05-27T14:32:07;53236.28;;;-143.77;31.45
13836;BME280;6988;52.614;13.500;2023-05-27T14:37:00;53205.50;;;-143.77;31.02
13836;BME280;6988;52.614;13.500;2023-05-27T14:41:52;53166.53;;;-143.77;31.09
13836;BME280;6988;52.614;13.500;2023-05-27T14:46:45;53180.91;;;-143.77;30.91
13836;BME280;6988;52.614;13.500;2023-05-27T14:51:37;53238.34;;;-143.77;30.97
13836;BME280;6988;52.614;13.500;2023-05-27T14:56:30;53211.66;;;-143.77;30.98
13836;BME280;6988;52.614;13.500;2023-05-27T15:01:22;53275.25;;;-143.77;30.84
13836;BME280;6988;52.614;13.500;2023-05-27T15:06:14;53273.19;;;-143.77;31.78
13836;BME280;6988;52.614;13.500;2023-05-27T15:11:06;53260.91;;;-143.77;30.83
13836;BME280;6988;52.614;13.500;2023-05-27T15:15:59;53240.38;;;-143.77;30.74
13836;BME280;6988;52.614;13.500;2023-05-27T15:20:51;53277.31;;;-143.77;31.29
13836;BME280;6988;52.614;13.500;2023-05-27T15:25:43;53277.31;;;-143.77;31.45
13836;BME280;6988;52.614;13.500;2023-05-27T15:30:34;53303.97;;;-143.77;32.29
13836;BME280;6988;52.614;13.500;2023-05-27T15:35:27;53250.63;;;-143.77;32.30
13836;BME280;6988;52.614;13.500;2023-05-27T15:40:20;53221.91;;;-143.77;31.65
13836;BME280;6988;52.614;13.500;2023-05-27T15:45:12;53234.22;;;-143.77;32.17
13836;BME280;6988;52.614;13.500;2023-05-27T15:50:06;53199.34;;;-143.77;31.64
13836;BME280;6988;52.614;13.500;2023-05-27T15:55:00;53215.78;;;-143.77;31.26
13836;BME280;6988;52.614;13.500;2023-05-27T15:59:51;53217.81;;;-143.77;31.33
13836;BME280;6988;52.614;13.500;2023-05-27T16:04:43;53228.06;;;-143.77;30.88
13836;BME280;6988;52.614;13.500;2023-05-27T16:09:36;53240.38;;;-143.77;31.18
13836;BME280;6988;52.614;13.500;2023-05-27T16:14:29;53326.53;;;-143.77;31.95
13836;BME280;6988;52.614;13.500;2023-05-27T16:19:21;53367.56;;;-143.77;32.10
13836;BME280;6988;52.614;13.500;2023-05-27T16:24:13;53392.19;;;-143.77;32.19
13836;BME280;6988;52.614;13.500;2023-05-27T16:29:05;53386.03;;;-143.77;31.89
13836;BME280;6988;52.614;13.500;2023-05-27T16:33:59;53418.84;;;-143.77;33.59
13836;BME280;6988;52.614;13.500;2023-05-27T16:38:51;53451.66;;;-143.77;33.04
13836;BME280;6988;52.614;13.500;2023-05-27T16:43:43;53449.63;;;-143.77;33.82
13836;BME280;6988;52.614;13.500;2023-05-27T16:48:36;53482.44;;;-143.77;35.65
13836;BME280;6988;52.614;13.500;2023-05-27T16:53:29;53478.34;;;-143.77;35.91
13836;BME280;6988;52.614;13.500;2023-05-27T16:58:21;53519.38;;;-143.77;36.78
13836;BME280;6988;52.614;13.500;2023-05-27T17:03:15;53509.09;;;-143.77;36.68
13836;BME280;6988;52.614;13.500;2023-05-27T17:08:07;53515.25;;;-143.77;37.50
13836;BME280;6988;52.614;13.500;2023-05-27T17:13:01;53529.63;;;-143.77;37.69
13836;BME280;6988;52.614;13.500;2023-05-27T17:17:53;53548.09;;;-143.77;37.80
13836;BME280;6988;52.614;13.500;2023-05-27T17:22:44;53554.25;;;-143.77;37.78
13836;BME280;6988;52.614;13.500;2023-05-27T17:27:36;53543.97;;;-143.77;37.89
13836;BME280;6988;52.614;13.500;2023-05-27T17:32:30;53585.00;;;-143.77;39.94
13836;BME280;6988;52.614;13.500;2023-05-27T17:37:22;53564.50;;;-143.77;39.86
13836;BME280;6988;52.614;13.500;2023-05-27T17:42:13;53605.53;;;-143.77;40.75
13836;BME280;6988;52.614;13.500;2023-05-27T17:47:05;53630.16;;;-143.77;41.76
13836;BME280;6988;52.614;13.500;2023-05-27T17:51:58;53665.03;;;-143.77;42.00
13836;BME280;6988;52.614;13.500;2023-05-27T17:56:50;53671.19;;;-143.77;42.28
13836;BME280;6988;52.614;13.500;2023-05-27T18:01:42;53685.53;;;-143.77;42.98
13836;BME280;6988;52.614;13.500;2023-05-27T18:06:34;53687.59;;;-143.77;43.36
13836;BME280;6988;52.614;13.500;2023-05-27T18:11:28;53691.69;;;-143.77;43.61
13836;BME280;6988;52.614;13.500;2023-05-27T18:16:20;53712.22;;;-143.77;44.13
13836;BME280;6988;52.614;13.500;2023-05-27T18:21:14;53699.91;;;-143.77;44.98
13836;BME280;6988;52.614;13.500;2023-05-27T18:26:06;53720.41;;;-143.77;45.80
13836;BME280;6988;52.614;13.500;2023-05-27T18:30:59;53757.34;;;-143.77;45.84
13836;BME280;6988;52.614;13.500;2023-05-27T18:35:51;53761.44;;;-143.77;46.93
13836;BME280;6988;52.614;13.500;2023-05-27T18:40:43;53734.78;;;-143.77;47.40
13836;BME280;6988;52.614;13.500;2023-05-27T18:45:52;53757.34;;;-143.77;46.77
13836;BME280;6988;52.614;13.500;2023-05-27T18:50:47;53753.25;;;-143.77;46.40
13836;BME280;6988;52.614;13.500;2023-05-27T18:55:38;53759.41;;;-143.77;47.06
13836;BME280;6988;52.614;13.500;2023-05-27T19:00:30;53779.91;;;-143.77;47.28
13836;BME280;6988;52.614;13.500;2023-05-27T19:05:22;53745.03;;;-143.77;46.43
13836;BME280;6988;52.614;13.500;2023-05-27T19:10:16;53769.66;;;-143.77;47.40
13836;BME280;6988;52.614;13.500;2023-05-27T19:15:09;53794.28;;;-143.77;48.81
13836;BME280;6988;52.614;13.500;2023-05-27T19:20:01;53796.31;;;-143.77;49.05
13836;BME280;6988;52.614;13.500;2023-05-27T19:24:53;53876.34;;;-143.77;49.91
13836;BME280;6988;52.614;13.500;2023-05-27T19:29:46;53859.91;;;-143.77;49.88
13836;BME280;6988;52.614;13.500;2023-05-27T19:34:38;53859.91;;;-143.77;49.99
13836;BME280;6988;52.614;13.500;2023-05-27T19:39:30;53812.72;;;-143.77;50.40
13836;BME280;6988;52.614;13.500;2023-05-27T19:44:23;53827.09;;;-143.77;50.85
13836;BME280;6988;52.614;13.500;2023-05-27T19:49:16;53847.59;;;-143.77;50.37
13836;BME280;6988;52.614;13.500;2023-05-27T19:54:08;53847.59;;;-143.77;50.64
13836;BME280;6988;52.614;13.500;2023-05-27T19:59:03;53876.34;;;-143.77;51.45
13836;BME280;6988;52.614;13.500;2023-05-27T20:03:55;53859.91;;;-143.77;52.10
13836;BME280;6988;52.614;13.500;2023-05-27T20:08:51;53913.25;;;-143.77;52.27
13836;BME280;6988;52.614;13.500;2023-05-27T20:13:43;53870.19;;;-143.77;53.10
13836;BME280;6988;52.614;13.500;2023-05-27T20:18:35;53913.25;;;-143.77;53.37
13836;BME280;6988;52.614;13.500;2023-05-27T20:23:27;53925.56;;;-143.77;53.34
13836;BME280;6988;52.614;13.500;2023-05-27T20:28:21;53909.16;;;-143.77;53.34
13836;BME280;6988;52.614;13.500;2023-05-27T20:33:12;53919.41;;;-143.77;53.62
13836;BME280;6988;52.614;13.500;2023-05-27T20:38:04;53905.06;;;-143.77;53.88
13836;BME280;6988;52.614;13.500;2023-05-27T20:42:56;53909.16;;;-143.77;53.89
13836;BME280;6988;52.614;13.500;2023-05-27T20:47:49;53937.88;;;-143.77;54.14
13836;BME280;6988;52.614;13.500;2023-05-27T20:52:41;53946.09;;;-143.77;54.03
13836;BME280;6988;52.614;13.500;2023-05-27T20:57:33;53935.84;;;-143.77;54.39
13836;BME280;6988;52.614;13.500;2023-05-27T21:02:25;53921.47;;;-143.77;54.62
13836;BME280;6988;52.614;13.500;2023-05-27T21:07:19;53944.03;;;-143.77;54.81
13836;BME280;6988;52.614;13.500;2023-05-27T21:12:11;53950.19;;;-143.77;54.50
13836;BME280;6988;52.614;13.500;2023-05-27T21:17:03;53952.25;;;-143.77;54.78
13836;BME280;6988;52.614;13.500;2023-05-27T21:21:56;53970.72;;;-143.77;55.06
13836;BME280;6988;52.614;13.500;2023-05-27T21:26:51;53976.88;;;-143.77;55.48
13836;BME280;6988;52.614;13.500;2023-05-27T21:31:42;54007.63;;;-143.77;56.16
13836;BME280;6988;52.614;13.500;2023-05-27T21:36:34;53950.19;;;-143.77;56.19
13836;BME280;6988;52.614;13.500;2023-05-27T21:41:27;54013.78;;;-143.77;56.76
13836;BME280;6988;52.614;13.500;2023-05-27T22:05:07;54028.16;;;-143.77;57.88
13836;BME280;6988;52.614;13.500;2023-05-27T22:09:59;54040.47;;;-143.77;58.31
13836;BME280;6988;52.614;13.500;2023-05-27T22:14:51;54038.41;;;-143.77;58.24
13836;BME280;6988;52.614;13.500;2023-05-27T22:19:43;54056.88;;;-143.77;58.57
13836;BME280;6988;52.614;13.500;2023-05-27T22:24:36;54034.31;;;-143.77;58.57
13836;BME280;6988;52.614;13.500;2023-05-27T22:29:28;54044.56;;;-143.77;58.30
13836;BME280;6988;52.614;13.500;2023-05-27T22:34:20;54052.78;;;-143.77;58.91
13836;BME280;6988;52.614;13.500;2023-05-27T22:39:12;54036.38;;;-143.77;59.33
13836;BME280;6988;52.614;13.500;2023-05-27T22:44:05;54077.41;;;-143.77;60.10
13836;BME280;6988;52.614;13.500;2023-05-27T22:48:56;54087.66;;;-143.77;60.57
13836;BME280;6988;52.614;13.500;2023-05-27T22:53:48;54093.81;;;-143.77;60.55
13836;BME280;6988;52.614;13.500;2023-05-27T22:58:41;54077.41;;;-143.77;60.65
13836;BME280;6988;52.614;13.500;2023-05-27T23:03:34;54063.03;;;-143.77;60.72
13836;BME280;6988;52.614;13.500;2023-05-27T23:08:26;54048.66;;;-143.77;61.15
13836;BME280;6988;52.614;13.500;2023-05-27T23:13:19;54114.31;;;-143.77;60.83
13836;BME280;6988;52.614;13.500;2023-05-27T23:18:11;54089.72;;;-143.77;60.97
13836;BME280;6988;52.614;13.500;2023-05-27T23:23:04;54099.97;;;-143.77;60.92
13836;BME280;6988;52.614;13.500;2023-05-27T23:27:56;54093.81;;;-143.77;61.26
13836;BME280;6988;52.614;13.500;2023-05-27T23:32:48;54102.00;;;-143.77;60.97
13836;BME280;6988;52.614;13.500;2023-05-27T23:37:42;54087.66;;;-143.77;61.26
13836;BME280;6988;52.614;13.500;2023-05-27T23:42:35;54069.19;;;-143.77;61.75
13836;BME280;6988;52.614;13.500;2023-05-27T23:47:27;54114.31;;;-143.77;61.65
13836;BME280;6988;52.614;13.500;2023-05-27T23:52:19;54112.28;;;-143.77;61.77
13836;BME280;6988;52.614;13.500;2023-05-27T23:57:11;54102.00;;;-143.77;62.21
